LFCK/DCM METAR and TAF weather

Enter ICAO airport designator
Station Type Date Time Source
LFCK METAR 2024/02/26 18:30 UTC NOAA

LFCK 261830Z AUTO 29005KT 9999 BKN031/// OVC038/// ///CB 09/06 Q1001 TEMPO 4000 SHRA BKN012 SCT025TCU


Station Type Date Time Source
LFCK Decoded METAR 2024/02/26 18:30 UTC NOAA

Station name not available
Feb 26, 2024 - 01:30 PM EST / 2024.02.26 1830 UTC
Wind: from the WNW (290 degrees) at 6 MPH (5 KT):0
Visibility: greater than 7 mile(s):0
Sky conditions: overcast
Weather: Cumulonimbus clouds, towering cumulus clouds observed
Temperature: 48 F (9 C)
Dew Point: 42 F (6 C)
Relative Humidity: 81%
Pressure (altimeter): 29.56 in. Hg (1001 hPa)
ob: LFCK 261830Z AUTO 29005KT 9999 BKN031/// OVC038/// ///CB 09/06 Q1001 TEMPO 4000 SHRA BKN012 SCT025TCU
cycle: 18

Station Type Date Time Source
LFCK TAF UTC NOAA

Error!

Example: see airport list